Time;durP1;ratioP1;P1;durP2;ratioP2;P2;SDS_P1;SDS_P2;PMS_P1;PMS_P2;Temp;Humidity;BMP_temperature;BMP_pressure;BME280_temperature;BME280_humidity;BME280_pressure;Samples;Min_cycle;Max_cycle;Signal;HPM_P1;HPM_P2
2020/12/29 15:19:58;;;;;;;1999.90;999.90;;;1.70;99.90;;;;;;5086535;27;20555;-48
2020/12/29 15:22:24;;;;;;;1999.90;999.90;;;1.70;99.90;;;;;;5063313;28;20475;-49
2020/12/29 15:24:49;;;;;;;1999.90;999.90;;;1.70;99.90;;;;;;5069226;28;20184;-49
2020/12/29 15:27:16;;;;;;;1999.90;999.90;;;1.70;99.90;;;;;;5064606;28;20193;-49
2020/12/29 15:29:42;;;;;;;1999.90;999.90;;;1.70;99.90;;;;;;5069655;28;20320;-49
2020/12/29 15:32:08;;;;;;;1999.90;999.90;;;1.70;99.90;;;;;;5062991;28;20988;-49
2020/12/29 15:34:33;;;;;;;1999.90;999.90;;;1.70;99.90;;;;;;5049350;28;20175;-48
2020/12/29 15:36:59;;;;;;;1999.90;999.90;;;1.70;99.90;;;;;;5061273;28;20460;-49
2020/12/29 15:39:24;;;;;;;1999.90;999.90;;;1.80;99.90;;;;;;5060061;28;20631;-49
2020/12/29 15:41:50;;;;;;;1999.90;999.90;;;1.80;99.90;;;;;;5061816;28;20196;-49
2020/12/29 15:44:17;;;;;;;1999.90;999.90;;;1.70;99.90;;;;;;5060617;28;20174;-48
2020/12/29 15:46:47;;;;;;;1999.90;999.90;;;1.70;99.90;;;;;;5060397;28;20416;-49
2020/12/29 15:49:13;;;;;;;1999.90;999.90;;;1.70;99.90;;;;;;5061267;28;20452;-49
2020/12/29 15:51:39;;;;;;;1999.90;999.90;;;1.80;99.90;;;;;;5062540;28;20416;-48
2020/12/29 15:54:06;;;;;;;1999.90;999.90;;;1.70;99.90;;;;;;5058405;28;20445;-49
2020/12/29 15:56:32;;;;;;;1999.90;999.90;;;1.50;99.90;;;;;;5059672;28;20443;-49
2020/12/29 15:58:58;;;;;;;1999.90;999.90;;;1.50;99.90;;;;;;5061815;28;20490;-49
2020/12/29 16:01:23;;;;;;;1999.90;999.90;;;1.40;99.90;;;;;;5058011;28;20185;-49
2020/12/29 16:03:50;;;;;;;1999.90;999.90;;;1.30;99.90;;;;;;5059795;28;20178;-49
2020/12/29 16:06:16;;;;;;;1999.90;999.90;;;1.30;99.90;;;;;;5057445;28;20230;-49
2020/12/29 16:08:42;;;;;;;1999.90;999.90;;;1.20;99.90;;;;;;5059934;28;20452;-48
2020/12/29 16:11:07;;;;;;;1999.90;999.90;;;1.00;99.90;;;;;;5064938;28;20831;-49
2020/12/29 16:13:35;;;;;;;1999.90;999.90;;;0.90;99.90;;;;;;5059341;28;20408;-48
2020/12/29 16:16:01;;;;;;;1999.90;999.90;;;0.70;99.90;;;;;;5055550;28;20194;-49
2020/12/29 16:18:27;;;;;;;1999.90;999.90;;;0.70;99.90;;;;;;5058018;28;20491;-49
2020/12/29 16:20:52;;;;;;;1999.90;999.90;;;0.70;99.90;;;;;;5060985;28;20661;-49
2020/12/29 16:23:18;;;;;;;1999.90;999.90;;;0.60;99.90;;;;;;5057897;28;20189;-49
2020/12/29 16:25:44;;;;;;;1999.90;999.90;;;0.70;99.90;;;;;;5053987;28;20185;-49
2020/12/29 16:28:09;;;;;;;1999.90;999.90;;;0.80;99.90;;;;;;5056682;28;20201;-48
2020/12/29 16:30:36;;;;;;;1999.90;999.90;;;0.70;99.90;;;;;;5052219;28;20214;-48
2020/12/29 16:33:02;;;;;;;1999.90;999.90;;;0.90;99.90;;;;;;5047944;28;20687;-49
2020/12/29 16:35:28;;;;;;;1999.90;999.90;;;0.90;99.90;;;;;;5042539;28;20445;-48
2020/12/29 16:37:53;;;;;;;1999.90;999.90;;;0.90;99.90;;;;;;5042431;28;20500;-49
2020/12/29 16:40:19;;;;;;;1999.90;999.90;;;1.00;99.90;;;;;;5042241;28;20213;-48
2020/12/29 16:42:44;;;;;;;1999.90;999.90;;;1.00;99.90;;;;;;5046860;28;20195;-49
2020/12/29 16:45:10;;;;;;;1999.90;999.90;;;1.00;99.90;;;;;;5044087;28;20190;-49
2020/12/29 16:47:36;;;;;;;1999.90;999.90;;;1.00;99.90;;;;;;5043547;28;20254;-49
2020/12/29 16:50:03;;;;;;;1999.90;999.90;;;0.90;99.90;;;;;;5044460;28;20577;-48
2020/12/29 16:52:29;;;;;;;1999.90;999.90;;;1.00;99.90;;;;;;5043364;28;20409;-49
2020/12/29 16:54:56;;;;;;;1999.90;999.90;;;0.90;99.90;;;;;;5048819;28;20432;-49
2020/12/29 16:57:22;;;;;;;1999.90;999.90;;;0.90;99.90;;;;;;5045339;28;20205;-49
2020/12/29 16:59:47;;;;;;;1999.90;999.90;;;0.90;99.90;;;;;;5046320;28;20498;-48
2020/12/29 17:02:13;;;;;;;1999.90;999.90;;;0.90;99.90;;;;;;5044252;28;20414;-48
2020/12/29 17:04:39;;;;;;;1999.90;999.90;;;0.90;99.90;;;;;;5042882;28;20175;-49
2020/12/29 17:07:04;;;;;;;1999.90;999.90;;;0.80;99.90;;;;;;5041355;28;20548;-48
2020/12/29 17:09:36;;;;;;;1999.90;999.90;;;0.80;99.90;;;;;;5051055;28;20211;-48
2020/12/29 17:12:05;;;;;;;1999.90;999.90;;;0.90;99.90;;;;;;5047058;28;20183;-49
2020/12/29 17:14:31;;;;;;;1999.90;999.90;;;0.90;99.90;;;;;;5046311;28;20430;-48
2020/12/29 17:16:57;;;;;;;1999.90;999.90;;;0.90;99.90;;;;;;5046841;28;20510;-49
2020/12/29 17:19:22;;;;;;;1999.90;999.90;;;0.90;99.90;;;;;;5041390;28;20217;-48
2020/12/29 17:21:51;;;;;;;1999.90;999.90;;;1.00;99.90;;;;;;5045523;28;20182;-49
2020/12/29 17:24:18;;;;;;;1999.90;999.90;;;1.00;99.90;;;;;;5043805;28;20183;-48
2020/12/29 17:26:44;;;;;;;1999.90;999.90;;;1.00;99.90;;;;;;5041693;28;20428;-48
2020/12/29 17:29:09;;;;;;;1999.90;999.90;;;1.10;99.90;;;;;;5042064;28;20453;-48
2020/12/29 17:31:35;;;;;;;1999.90;999.90;;;1.10;99.90;;;;;;5043156;28;20918;-48
2020/12/29 17:34:01;;;;;;;1999.90;999.90;;;1.10;99.90;;;;;;5043025;28;20191;-48
2020/12/29 17:36:27;;;;;;;1999.90;999.90;;;1.20;99.90;;;;;;5040601;28;20183;-46
2020/12/29 17:38:53;;;;;;;1999.90;999.90;;;1.30;99.90;;;;;;5037612;28;20222;-47
2020/12/29 17:41:21;;;;;;;1999.90;999.90;;;1.40;99.90;;;;;;5041596;28;20656;-47
2020/12/29 17:43:50;;;;;;;1999.90;999.90;;;1.50;99.90;;;;;;5051382;28;20417;-49
2020/12/29 17:46:24;;;;;;;1999.90;999.90;;;1.50;99.90;;;;;;5050028;28;20444;-47
2020/12/29 17:48:50;;;;;;;1999.90;999.90;;;1.60;99.90;;;;;;5048404;28;20884;-47
2020/12/29 17:51:18;;;;;;;1999.90;999.90;;;1.60;99.90;;;;;;5046621;28;20444;-47
2020/12/29 17:53:44;;;;;;;1999.90;999.90;;;1.60;99.90;;;;;;5045090;28;20433;-51
2020/12/29 17:56:25;;;;;;;1999.90;999.90;;;1.60;99.90;;;;;;5037123;28;20477;-47
2020/12/29 17:58:58;;;;;;;1999.90;999.90;;;1.60;99.90;;;;;;5036013;28;21060;-47
2020/12/29 18:01:25;;;;;;;1999.90;999.90;;;1.60;99.90;;;;;;5041370;28;20424;-47
2020/12/29 18:03:54;;;;;;;1999.90;999.90;;;1.60;99.90;;;;;;5042444;28;20424;-47
2020/12/29 18:06:25;;;;;;;1999.90;999.90;;;1.70;99.90;;;;;;5040087;28;20930;-47
2020/12/29 18:08:52;;;;;;;1999.90;999.90;;;1.70;99.90;;;;;;5036726;28;21008;-48
2020/12/29 18:11:31;;;;;;;1999.90;999.90;;;1.70;99.90;;;;;;5039886;28;20425;-47
2020/12/29 18:13:57;;;;;;;1999.90;999.90;;;1.70;99.90;;;;;;5040502;28;20802;-48
2020/12/29 18:16:25;;;;;;;1999.90;999.90;;;1.70;99.90;;;;;;5042738;28;20981;-47
2020/12/29 18:18:51;;;;;;;1999.90;999.90;;;1.70;99.90;;;;;;5033793;28;20479;-48
2020/12/29 18:21:20;;;;;;;1999.90;999.90;;;1.70;99.90;;;;;;5045070;28;20487;-47
2020/12/29 18:23:46;;;;;;;1999.90;999.90;;;1.70;99.90;;;;;;5059619;28;20170;-49
2020/12/29 18:26:17;;;;;;;1999.90;999.90;;;1.70;99.90;;;;;;5045935;28;20543;-50
2020/12/29 18:28:43;;;;;;;1999.90;999.90;;;1.70;99.90;;;;;;5042941;28;20233;-50
2020/12/29 18:31:09;;;;;;;1999.90;999.90;;;1.70;99.90;;;;;;5045349;28;20438;-50
2020/12/29 18:33:35;;;;;;;1999.90;999.90;;;1.80;99.90;;;;;;5050139;28;20190;-49
2020/12/29 18:36:02;;;;;;;1999.90;999.90;;;1.80;99.90;;;;;;5054297;28;20405;-46
2020/12/29 18:38:28;;;;;;;1999.90;999.90;;;1.80;99.90;;;;;;5061354;28;20313;-49
2020/12/29 18:40:54;;;;;;;1999.90;999.90;;;1.70;99.90;;;;;;5043401;28;21029;-53
2020/12/29 18:43:19;;;;;;;1999.90;999.90;;;1.50;99.90;;;;;;5044839;28;20429;-46
2020/12/29 18:45:45;;;;;;;1999.90;999.90;;;1.30;99.90;;;;;;5042927;28;20181;-49
2020/12/29 18:48:11;;;;;;;1999.90;999.90;;;1.10;99.90;;;;;;5038651;28;20216;-46
2020/12/29 18:50:36;;;;;;;1999.90;999.90;;;0.90;99.90;;;;;;5043881;28;20186;-45
2020/12/29 18:53:02;;;;;;;1999.90;999.90;;;0.90;99.90;;;;;;5057626;28;20194;-48
2020/12/29 18:55:28;;;;;;;1999.90;999.90;;;0.80;99.90;;;;;;5053467;28;20576;-46
2020/12/29 18:57:54;;;;;;;1999.90;999.90;;;0.70;99.90;;;;;;5049630;28;20436;-49
2020/12/29 19:00:19;;;;;;;1999.90;999.90;;;0.60;99.90;;;;;;5053345;28;20274;-47
2020/12/29 19:02:45;;;;;;;1999.90;999.90;;;0.50;99.90;;;;;;5045086;28;20558;-47
2020/12/29 19:05:11;;;;;;;1999.90;999.90;;;0.40;99.90;;;;;;5045273;28;20198;-47
2020/12/29 19:07:36;;;;;;;1999.90;999.90;;;0.40;99.90;;;;;;5054520;28;20182;-47
2020/12/29 19:10:03;;;;;;;1999.90;999.90;;;0.40;99.90;;;;;;5050812;28;20596;-47
2020/12/29 19:12:29;;;;;;;1999.90;999.90;;;0.20;99.90;;;;;;5057620;28;20190;-47
2020/12/29 19:14:55;;;;;;;1999.90;999.90;;;0.10;99.90;;;;;;5056421;28;20424;-48
2020/12/29 19:17:20;;;;;;;1999.90;999.90;;;-0.10;99.90;;;;;;5055120;28;20200;-48
2020/12/29 19:19:46;;;;;;;1999.90;999.90;;;-0.10;99.90;;;;;;5052523;28;21167;-47
2020/12/29 19:22:12;;;;;;;1999.90;999.90;;;-0.10;99.90;;;;;;5049037;28;20196;-47
2020/12/29 19:24:38;;;;;;;1999.90;999.90;;;-0.10;99.90;;;;;;5053497;28;20932;-47
2020/12/29 19:27:04;;;;;;;1999.90;999.90;;;-0.20;99.90;;;;;;5056585;28;20697;-47
2020/12/29 19:29:29;;;;;;;1999.90;999.90;;;-0.20;99.90;;;;;;5048311;28;20213;-47
2020/12/29 19:31:55;;;;;;;1999.90;999.90;;;-0.30;99.90;;;;;;5036168;28;20813;-48
2020/12/29 19:34:21;;;;;;;1999.90;999.90;;;-0.10;99.90;;;;;;5035955;28;20205;-48
2020/12/29 19:36:49;;;;;;;1999.90;999.90;;;-0.10;99.90;;;;;;5034134;28;20197;-48
2020/12/29 19:39:15;;;;;;;1999.90;999.90;;;-0.20;99.90;;;;;;5036563;28;20867;-47
2020/12/29 19:41:41;;;;;;;1999.90;999.90;;;-0.20;99.90;;;;;;5037552;28;20446;-48
2020/12/29 19:44:06;;;;;;;1999.90;999.90;;;-0.20;99.90;;;;;;5037746;28;20183;-48
2020/12/29 19:46:32;;;;;;;1999.90;999.90;;;-0.10;99.90;;;;;;5052392;28;20432;-47
2020/12/29 19:48:58;;;;;;;1999.90;999.90;;;-0.10;99.90;;;;;;5048199;28;20224;-48
2020/12/29 19:51:24;;;;;;;1999.90;999.90;;;-0.20;99.90;;;;;;5048737;28;20442;-47
2020/12/29 19:53:51;;;;;;;1999.90;999.90;;;-0.20;99.90;;;;;;5054308;28;20170;-48
2020/12/29 19:56:17;;;;;;;1999.90;999.90;;;-0.10;99.90;;;;;;5052878;28;20495;-48
2020/12/29 19:58:43;;;;;;;1999.90;999.90;;;-0.10;99.90;;;;;;5051410;28;20496;-47
2020/12/29 20:01:09;;;;;;;1999.90;999.90;;;-0.20;99.90;;;;;;5048603;28;20606;-47
2020/12/29 20:03:35;;;;;;;1999.90;999.90;;;-0.10;99.90;;;;;;5052793;28;21005;-48
2020/12/29 20:06:02;;;;;;;1999.90;999.90;;;-0.20;99.90;;;;;;5049403;28;21155;-48
2020/12/29 20:08:27;;;;;;;1999.90;999.90;;;-0.20;99.90;;;;;;5056717;28;20444;-48
2020/12/29 20:10:53;;;;;;;1999.90;999.90;;;-0.30;99.90;;;;;;5056893;28;20455;-47
2020/12/29 20:13:19;;;;;;;1999.90;999.90;;;-0.20;99.90;;;;;;5058378;28;20251;-47
2020/12/29 20:15:46;;;;;;;1999.90;999.90;;;-0.30;99.90;;;;;;5050720;28;20872;-48
2020/12/29 20:18:12;;;;;;;1999.90;999.90;;;-0.30;99.90;;;;;;5048116;28;20483;-47
2020/12/29 20:20:38;;;;;;;1999.90;999.90;;;-0.30;99.90;;;;;;5051394;28;20448;-48
2020/12/29 20:23:04;;;;;;;1999.90;999.90;;;-0.40;99.90;;;;;;5040344;28;20191;-48
2020/12/29 20:25:29;;;;;;;1999.90;999.90;;;-0.50;99.90;;;;;;5040230;28;20446;-48
2020/12/29 20:27:55;;;;;;;1999.90;999.90;;;-0.60;99.90;;;;;;5040237;28;20551;-48
2020/12/29 20:30:21;;;;;;;1999.90;999.90;;;-0.70;99.90;;;;;;5041275;28;20207;-48
2020/12/29 20:32:46;;;;;;;1999.90;999.90;;;-0.80;99.90;;;;;;5040551;28;20225;-47
2020/12/29 20:35:12;;;;;;;1999.90;999.90;;;-0.80;99.90;;;;;;5045968;28;20544;-47
2020/12/29 20:37:37;;;;;;;1999.90;999.90;;;-0.90;99.90;;;;;;5049831;28;20243;-47
2020/12/29 20:40:06;;;;;;;1999.90;999.90;;;-0.90;99.90;;;;;;5041912;28;20290;-48
2020/12/29 20:42:32;;;;;;;1999.90;999.90;;;-0.70;99.90;;;;;;5036402;28;20580;-47
2020/12/29 20:44:58;;;;;;;1999.90;999.90;;;-0.60;99.90;;;;;;5035798;28;20873;-47
2020/12/29 20:47:24;;;;;;;1999.90;999.90;;;-0.50;99.90;;;;;;5039917;28;20425;-46
2020/12/29 20:49:50;;;;;;;1999.90;999.90;;;-0.50;99.90;;;;;;5049295;28;20550;-47
2020/12/29 20:52:16;;;;;;;1999.90;999.90;;;-0.40;99.90;;;;;;5059444;28;20269;-47
2020/12/29 20:54:41;;;;;;;1999.90;999.90;;;-0.40;99.90;;;;;;5059202;28;20520;-46
2020/12/29 20:57:08;;;;;;;1999.90;999.90;;;-0.40;99.90;;;;;;5051112;28;20194;-47
2020/12/29 20:59:34;;;;;;;1999.90;999.90;;;-0.40;99.90;;;;;;5046687;28;20217;-47
2020/12/29 21:01:59;;;;;;;1999.90;999.90;;;-0.50;99.90;;;;;;5044903;28;20466;-47
2020/12/29 21:04:25;;;;;;;1999.90;999.90;;;-0.50;99.90;;;;;;5049010;28;20471;-47
2020/12/29 21:06:51;;;;;;;1999.90;999.90;;;-0.50;99.90;;;;;;5055639;28;20182;-47
2020/12/29 21:09:18;;;;;;;1999.90;999.90;;;-0.50;99.90;;;;;;5049414;28;20580;-47
2020/12/29 21:11:43;;;;;;;1999.90;999.90;;;-0.50;99.90;;;;;;5059810;28;20420;-47
2020/12/29 21:14:09;;;;;;;1999.90;999.90;;;-0.60;99.90;;;;;;5052631;28;20794;-47
2020/12/29 21:16:35;;;;;;;1999.90;999.90;;;-0.60;99.90;;;;;;5047380;28;20190;-47
2020/12/29 21:19:01;;;;;;;1999.90;999.90;;;-0.60;99.90;;;;;;5052596;28;20633;-46
2020/12/29 21:21:29;;;;;;;1999.90;999.90;;;-0.50;99.90;;;;;;5051555;28;20190;-47
2020/12/29 21:23:55;;;;;;;1999.90;999.90;;;-0.30;99.90;;;;;;5048780;28;20842;-47
2020/12/29 21:26:22;;;;;;;1999.90;999.90;;;-0.20;99.90;;;;;;5049511;28;20446;-47
2020/12/29 21:28:49;;;;;;;1999.90;999.90;;;-0.10;99.90;;;;;;5054411;28;21175;-47
2020/12/29 21:31:15;;;;;;;1999.90;999.90;;;-0.10;99.90;;;;;;5052180;28;20440;-47
2020/12/29 21:33:43;;;;;;;1999.90;999.90;;;0.00;99.90;;;;;;5048605;28;20444;-47
2020/12/29 21:36:16;;;;;;;1999.90;999.90;;;0.00;99.90;;;;;;5051345;28;20443;-47
2020/12/29 21:38:42;;;;;;;1999.90;999.90;;;0.10;99.90;;;;;;5052460;28;20503;-47
2020/12/29 21:41:10;;;;;;;1999.90;999.90;;;0.20;99.90;;;;;;5054684;28;20466;-47
2020/12/29 21:43:37;;;;;;;1999.90;999.90;;;0.30;99.90;;;;;;5049290;28;20428;-47
2020/12/29 21:46:04;;;;;;;1999.90;999.90;;;0.30;99.90;;;;;;5045413;28;20443;-47
2020/12/29 21:48:34;;;;;;;1999.90;999.90;;;0.40;99.90;;;;;;5053375;28;20797;-47
2020/12/29 21:51:00;;;;;;;1999.90;999.90;;;0.50;99.90;;;;;;5037715;28;20925;-47
2020/12/29 21:53:25;;;;;;;1999.90;999.90;;;0.50;99.90;;;;;;5045719;28;20454;-47
2020/12/29 21:55:51;;;;;;;1999.90;999.90;;;0.70;99.90;;;;;;5047341;28;20451;-47
2020/12/29 21:58:17;;;;;;;1999.90;999.90;;;0.80;99.90;;;;;;5043537;28;20556;-47
2020/12/29 22:00:43;;;;;;;1999.90;999.90;;;0.80;99.90;;;;;;5039603;28;20208;-47
